createdAt,value
2019-05-23T00:00:54.627Z,99343.39
2019-05-23T00:03:41.317Z,99343.01
2019-05-23T00:06:14.055Z,99338.00
2019-05-23T00:08:43.225Z,99337.31
2019-05-23T00:11:32.518Z,99333.55
2019-05-23T00:14:05.725Z,99345.66
2019-05-23T00:16:34.562Z,99341.89
2019-05-23T00:19:03.077Z,99339.63
2019-05-23T00:21:32.803Z,99341.25
2019-05-23T00:24:03.865Z,99341.15
2019-05-23T00:26:34.480Z,99335.75
2019-05-23T00:29:09.860Z,99346.66
2019-05-23T00:31:35.332Z,99341.10
2019-05-23T00:34:04.792Z,99340.63
2019-05-23T00:36:34.590Z,99345.85
2019-05-23T00:39:04.707Z,99340.37
2019-05-23T00:41:33.196Z,99341.05
2019-05-23T00:44:01.616Z,99341.41
2019-05-23T00:46:30.112Z,99336.76
2019-05-23T00:48:59.226Z,99339.52
2019-05-23T00:51:27.845Z,99339.84
2019-05-23T00:53:56.904Z,99336.84
2019-05-23T00:56:26.279Z,99334.80
2019-05-23T00:58:55.043Z,99334.01
2019-05-23T01:01:25.231Z,99336.41
2019-05-23T01:03:54.720Z,99335.00
2019-05-23T01:06:23.612Z,99335.42
2019-05-23T01:08:52.978Z,99335.83
2019-05-23T01:11:23.150Z,99332.91
2019-05-23T01:13:51.720Z,99332.08
2019-05-23T01:16:22.713Z,99331.17
2019-05-23T01:18:51.863Z,99335.08
2019-05-23T01:21:38.820Z,99324.68
2019-05-23T01:24:12.373Z,99326.81
2019-05-23T01:26:41.845Z,99327.75
2019-05-23T01:29:11.206Z,99328.38
2019-05-23T01:31:41.336Z,99329.32
2019-05-23T01:34:11.729Z,99323.84
2019-05-23T01:36:40.296Z,99332.42
2019-05-23T01:39:11.410Z,99327.30
2019-05-23T01:41:40.261Z,99330.87
2019-05-23T01:44:10.287Z,99331.78
2019-05-23T01:46:39.856Z,99324.38
2019-05-23T01:49:09.095Z,99334.78
2019-05-23T01:51:38.163Z,99325.97
2019-05-23T01:54:07.713Z,99324.95
2019-05-23T01:56:37.286Z,99326.18
2019-05-23T01:59:06.244Z,99321.68
2019-05-23T02:01:35.272Z,99322.55
2019-05-23T02:04:04.301Z,99326.12
2019-05-23T02:06:32.801Z,99326.84
2019-05-23T02:09:01.668Z,99330.07
2019-05-23T02:11:31.256Z,99321.17
2019-05-23T02:14:00.144Z,99325.58
2019-05-23T02:16:29.254Z,99324.22
2019-05-23T02:18:58.394Z,99326.52
2019-05-23T02:21:28.622Z,99326.27
2019-05-23T02:23:57.514Z,99323.01
2019-05-23T02:26:28.704Z,99326.61
2019-05-23T02:31:19.925Z,99311.43
2019-05-23T02:33:48.734Z,99317.42
2019-05-23T02:36:17.520Z,99319.20
2019-05-23T02:38:54.053Z,99322.92
2019-05-23T02:41:39.314Z,99321.73
2019-05-23T02:44:09.367Z,99323.50
2019-05-23T02:46:55.914Z,99317.45
2019-05-23T02:49:28.000Z,99312.41
2019-05-23T02:51:57.022Z,99317.05
2019-05-23T02:54:29.157Z,99311.95
2019-05-23T02:57:00.354Z,99313.62
2019-05-23T02:59:39.149Z,99305.58
2019-05-23T03:02:30.344Z,99310.03
2019-05-23T03:04:59.877Z,99302.34
2019-05-23T03:07:32.997Z,99307.50
2019-05-23T03:10:02.527Z,99308.84
2019-05-23T03:12:31.500Z,99308.03
2019-05-23T03:15:02.836Z,99307.35
2019-05-23T03:17:34.565Z,99310.75
2019-05-23T03:20:05.797Z,99304.05
2019-05-23T03:22:40.486Z,99305.75
2019-05-23T03:25:31.393Z,99305.75
2019-05-23T03:28:01.872Z,99305.04
2019-05-23T03:30:32.198Z,99295.11
2019-05-23T03:33:08.358Z,99297.72
2019-05-23T03:35:38.401Z,99293.45
2019-05-23T03:38:08.773Z,99296.91
2019-05-23T03:40:37.548Z,99298.20
2019-05-23T03:43:08.578Z,99298.68
2019-05-23T03:45:39.939Z,99301.67
2019-05-23T03:48:08.815Z,99297.77
2019-05-23T03:50:38.972Z,99294.24
2019-05-23T03:53:08.042Z,99290.80
2019-05-23T03:55:36.517Z,99294.70
2019-05-23T03:58:05.248Z,99302.45
2019-05-23T04:00:36.958Z,99297.24
2019-05-23T04:03:07.192Z,99298.45
2019-05-23T04:05:35.623Z,99301.13
2019-05-23T04:08:06.351Z,99301.00
2019-05-23T04:10:35.042Z,99303.03
2019-05-23T04:13:03.887Z,99296.89
2019-05-23T04:15:33.469Z,99298.13
2019-05-23T04:18:01.957Z,99293.94
2019-05-23T04:20:31.407Z,99295.10
2019-05-23T04:23:00.428Z,99300.60
2019-05-23T04:25:28.833Z,99300.25
2019-05-23T04:27:58.603Z,99301.98
2019-05-23T04:30:28.147Z,99298.70
2019-05-23T04:32:56.585Z,99303.95
2019-05-23T04:35:25.456Z,99301.14
2019-05-23T04:37:54.211Z,99300.96
2019-05-23T04:40:23.094Z,99298.05
2019-05-23T04:42:51.693Z,99299.49
2019-05-23T04:45:20.178Z,99300.39
2019-05-23T04:47:48.665Z,99297.98
2019-05-23T04:50:18.729Z,99306.67
2019-05-23T04:52:47.406Z,99305.73
2019-05-23T04:55:16.689Z,99304.51
2019-05-23T04:57:45.537Z,99302.27
2019-05-23T05:00:16.255Z,99304.82
2019-05-23T05:02:45.809Z,99297.52
2019-05-23T05:05:14.752Z,99299.28
2019-05-23T05:07:44.112Z,99295.81
2019-05-23T05:10:15.373Z,99303.19
2019-05-23T05:12:44.039Z,99295.81
2019-05-23T05:15:13.210Z,99299.69
2019-05-23T05:17:42.393Z,99303.84
2019-05-23T05:20:11.928Z,99302.48
2019-05-23T05:22:40.411Z,99312.00
2019-05-23T05:25:09.881Z,99303.95
2019-05-23T05:27:39.714Z,99298.48
2019-05-23T05:30:09.472Z,99301.16
2019-05-23T05:32:44.820Z,99293.58
2019-05-23T05:35:08.721Z,99299.69
2019-05-23T05:37:37.114Z,99299.03
2019-05-23T05:40:08.263Z,99302.73
2019-05-23T05:42:37.806Z,99300.70
2019-05-23T05:45:10.258Z,99300.94
2019-05-23T05:47:39.198Z,99307.41
2019-05-23T05:50:10.894Z,99313.34
2019-05-23T05:52:40.212Z,99314.21
2019-05-23T05:55:09.823Z,99312.28
2019-05-23T05:57:38.308Z,99319.58
2019-05-23T06:00:28.747Z,99314.32
2019-05-23T06:03:04.131Z,99320.09
2019-05-23T06:05:46.074Z,99317.49
2019-05-23T06:08:16.500Z,99321.72
2019-05-23T06:10:45.455Z,99318.95
2019-05-23T06:13:14.029Z,99320.27
2019-05-23T06:15:43.435Z,99327.48
2019-05-23T06:18:12.603Z,99328.42
2019-05-23T06:20:45.229Z,99317.90
2019-05-23T06:23:14.905Z,99305.67
2019-05-23T06:25:44.765Z,99320.00
2019-05-23T06:28:14.877Z,99321.78
2019-05-23T06:30:44.119Z,99325.14
2019-05-23T06:33:23.073Z,99323.89
2019-05-23T06:35:44.147Z,99327.77
2019-05-23T06:38:12.620Z,99324.04
2019-05-23T06:40:41.603Z,99324.45
2019-05-23T06:43:10.410Z,99316.73
2019-05-23T06:45:40.546Z,99325.20
2019-05-23T06:48:09.131Z,99327.53
2019-05-23T06:50:37.556Z,99324.11
2019-05-23T06:53:07.351Z,99320.94
2019-05-23T06:55:35.830Z,99325.63
2019-05-23T06:58:05.879Z,99327.47
2019-05-23T07:00:34.727Z,99330.93
2019-05-23T07:03:03.237Z,99326.02
2019-05-23T07:05:34.722Z,99323.39
2019-05-23T07:08:04.557Z,99331.97
2019-05-23T07:10:33.003Z,99329.59
2019-05-23T07:13:01.736Z,99328.11
2019-05-23T07:15:30.852Z,99330.94
2019-05-23T07:18:01.133Z,99331.52
2019-05-23T07:20:30.031Z,99333.97
2019-05-23T07:22:59.003Z,99327.33
2019-05-23T07:25:27.567Z,99333.86
2019-05-23T07:27:55.996Z,99339.09
2019-05-23T07:30:26.342Z,99332.70
2019-05-23T07:32:55.081Z,99337.87
2019-05-23T07:35:24.420Z,99337.98
2019-05-23T07:37:52.904Z,99334.98
2019-05-23T07:40:22.801Z,99337.86
2019-05-23T07:42:51.521Z,99336.56
2019-05-23T07:45:22.089Z,99339.32
2019-05-23T07:47:50.529Z,99334.66
2019-05-23T07:50:19.217Z,99334.66
2019-05-23T07:52:48.003Z,99332.58
2019-05-23T07:55:33.619Z,99335.34
2019-05-23T07:58:02.050Z,99329.58
2019-05-23T08:00:32.117Z,99321.72
2019-05-23T08:03:02.726Z,99324.56
2019-05-23T08:05:32.031Z,99316.99
2019-05-23T08:08:02.003Z,99314.81
2019-05-23T08:10:34.183Z,99314.07
2019-05-23T08:13:00.795Z,99306.72
2019-05-23T08:15:29.497Z,99314.34
2019-05-23T08:17:57.946Z,99314.34
2019-05-23T08:20:26.879Z,99319.80
2019-05-23T08:22:55.336Z,99310.75
2019-05-23T08:25:23.765Z,99316.45
2019-05-23T08:27:52.379Z,99316.27
2019-05-23T08:30:21.204Z,99314.07
2019-05-23T08:32:49.815Z,99317.80
2019-05-23T08:35:18.400Z,99319.27
2019-05-23T08:37:47.092Z,99314.45
2019-05-23T08:40:17.004Z,99312.98
2019-05-23T08:42:45.800Z,99317.08
2019-05-23T08:45:16.940Z,99311.03
2019-05-23T08:47:45.524Z,99308.89
2019-05-23T08:50:14.977Z,99311.91
2019-05-23T08:52:43.518Z,99306.63
2019-05-23T08:55:25.894Z,99306.12
2019-05-23T08:57:56.518Z,99305.52
2019-05-23T09:00:33.160Z,99295.52
2019-05-23T09:03:03.649Z,99299.08
2019-05-23T09:05:36.871Z,99302.18
2019-05-23T09:08:06.542Z,99293.75
2019-05-23T09:10:36.093Z,99294.48
2019-05-23T09:13:04.858Z,99291.56
2019-05-23T09:15:33.288Z,99298.52
2019-05-23T09:18:01.799Z,99288.49
2019-05-23T09:20:31.245Z,99291.23
2019-05-23T09:22:59.774Z,99288.94
2019-05-23T09:25:28.177Z,99284.81
2019-05-23T09:27:57.284Z,99289.88
2019-05-23T09:30:26.702Z,99280.07
2019-05-23T09:32:55.356Z,99291.73
2019-05-23T09:35:24.111Z,99281.77
2019-05-23T09:37:52.546Z,99284.27
2019-05-23T09:40:21.229Z,99278.73
2019-05-23T09:42:49.666Z,99275.95
2019-05-23T09:45:18.341Z,99279.28
2019-05-23T09:47:50.995Z,99277.66
2019-05-23T09:50:18.442Z,99277.91
2019-05-23T09:52:47.054Z,99280.31
2019-05-23T09:55:16.136Z,99272.36
2019-05-23T09:57:44.662Z,99269.05
2019-05-23T10:00:14.902Z,99272.48
2019-05-23T10:02:43.477Z,99264.52
2019-05-23T10:05:13.041Z,99266.88
2019-05-23T10:07:41.657Z,99261.33
2019-05-23T10:10:10.594Z,99260.01
2019-05-23T10:12:39.052Z,99255.95
2019-05-23T10:15:10.461Z,99260.85
2019-05-23T10:17:38.929Z,99252.30
2019-05-23T10:20:08.266Z,99252.92
2019-05-23T10:22:36.770Z,99253.22
2019-05-23T10:25:08.227Z,99242.99
2019-05-23T10:27:36.652Z,99246.58
2019-05-23T10:30:10.115Z,99241.09
2019-05-23T10:32:38.604Z,99234.44
2019-05-23T10:35:08.294Z,99239.33
2019-05-23T10:37:36.866Z,99242.58
2019-05-23T10:40:06.539Z,99229.84
2019-05-23T10:42:35.908Z,99231.50
2019-05-23T10:45:06.447Z,99239.17
2019-05-23T10:47:34.856Z,99234.35
2019-05-23T10:50:08.440Z,99225.89
2019-05-23T10:52:35.500Z,99225.98
2019-05-23T10:55:04.681Z,99216.91
2019-05-23T10:57:33.679Z,99222.99
2019-05-23T11:00:02.390Z,99213.91
2019-05-23T11:02:31.234Z,99209.22
2019-05-23T11:05:11.582Z,99204.17
2019-05-23T11:07:30.447Z,99210.78
2019-05-23T11:09:58.894Z,99203.88
2019-05-23T11:12:27.675Z,99203.08
2019-05-23T11:14:56.287Z,99195.78
2019-05-23T11:17:25.105Z,99197.89
2019-05-23T11:19:53.529Z,99191.33
2019-05-23T11:22:23.092Z,99185.63
2019-05-23T11:24:51.520Z,99188.47
2019-05-23T11:27:21.245Z,99179.84
2019-05-23T11:29:50.206Z,99180.14
2019-05-23T11:32:20.303Z,99181.88
2019-05-23T11:34:48.779Z,99181.94
2019-05-23T11:37:17.586Z,99179.91
2019-05-23T11:39:49.541Z,99177.41
2019-05-23T11:42:16.457Z,99181.45
2019-05-23T11:44:44.950Z,99180.83
2019-05-23T11:47:14.040Z,99172.00
2019-05-23T11:49:43.809Z,99178.37
2019-05-23T11:52:13.332Z,99173.36
2019-05-23T11:54:41.843Z,99174.48
2019-05-23T11:57:10.669Z,99170.23
2019-05-23T11:59:39.269Z,99166.84
2019-05-23T12:02:09.341Z,99169.48
2019-05-23T12:04:39.499Z,99164.88
2019-05-23T12:07:10.393Z,99159.19
2019-05-23T12:09:38.910Z,99155.36
2019-05-23T12:12:07.344Z,99158.23
2019-05-23T12:14:36.169Z,99159.09
2019-05-23T12:17:05.108Z,99157.05
2019-05-23T12:19:34.300Z,99150.19
2019-05-23T12:22:02.813Z,99151.98
2019-05-23T12:24:35.368Z,99149.45
2019-05-23T12:27:01.567Z,99150.20
2019-05-23T12:29:29.964Z,99145.69
2019-05-23T12:31:58.774Z,99144.53
2019-05-23T12:34:27.267Z,99152.23
2019-05-23T12:37:17.116Z,99146.31
2019-05-23T12:39:25.898Z,99150.54
2019-05-23T12:41:54.325Z,99153.96
2019-05-23T12:44:23.244Z,99146.83
2019-05-23T12:46:51.725Z,99144.33
2019-05-23T12:49:27.813Z,99143.62
2019-05-23T12:51:57.786Z,99144.27
2019-05-23T12:54:26.981Z,99137.33
2019-05-23T12:56:56.020Z,99133.22
2019-05-23T12:59:25.512Z,99128.12
2019-05-23T13:01:54.958Z,99129.04
2019-05-23T13:04:23.531Z,99127.44
2019-05-23T13:06:52.250Z,99127.95
2019-05-23T13:09:20.640Z,99127.38
2019-05-23T13:11:49.480Z,99116.20
2019-05-23T13:14:18.587Z,99119.38
2019-05-23T13:16:47.550Z,99114.23
2019-05-23T13:19:16.507Z,99112.48
2019-05-23T13:21:45.155Z,99116.49
2019-05-23T13:24:13.646Z,99109.98
2019-05-23T13:26:42.197Z,99102.24
2019-05-23T13:29:11.129Z,99100.66
2019-05-23T13:31:40.098Z,99105.11
2019-05-23T13:34:08.630Z,99099.72
2019-05-23T13:36:37.045Z,99098.30
2019-05-23T13:39:08.168Z,99096.08
2019-05-23T13:41:36.926Z,99098.56
2019-05-23T13:44:05.684Z,99090.70
2019-05-23T13:46:34.337Z,99093.41
2019-05-23T13:49:03.773Z,99094.36
2019-05-23T13:51:32.184Z,99088.30
2019-05-23T13:54:00.708Z,99084.70
2019-05-23T13:56:29.182Z,99084.16
2019-05-23T13:58:58.140Z,99078.63
2019-05-23T14:01:26.543Z,99079.13
2019-05-23T14:03:55.612Z,99081.78
2019-05-23T14:06:24.138Z,99081.05
2019-05-23T14:08:52.623Z,99085.14
2019-05-23T14:11:21.269Z,99075.47
2019-05-23T14:13:59.209Z,99074.95
2019-05-23T14:16:20.215Z,99078.75
2019-05-23T14:18:49.363Z,99069.42
2019-05-23T14:21:18.191Z,99071.66
2019-05-23T14:23:46.855Z,99067.89
2019-05-23T14:26:16.709Z,99070.27
2019-05-23T14:28:45.784Z,99061.86
2019-05-23T14:31:15.971Z,99063.30
2019-05-23T14:33:55.607Z,99054.75
2019-05-23T14:36:44.150Z,99057.45
2019-05-23T14:39:14.199Z,99058.02
2019-05-23T14:41:53.889Z,99058.05
2019-05-23T14:44:22.476Z,99066.70
2019-05-23T14:47:08.964Z,99060.33
2019-05-23T14:49:48.357Z,99055.86
2019-05-23T14:52:18.970Z,99057.33
2019-05-23T14:54:49.290Z,99047.02
2019-05-23T14:57:18.370Z,99052.06
2019-05-23T14:59:47.449Z,99043.23
2019-05-23T15:02:18.162Z,99040.25
2019-05-23T15:04:46.963Z,99047.31
2019-05-23T15:07:15.795Z,99047.31
2019-05-23T15:09:44.850Z,99049.25
2019-05-23T15:12:13.739Z,99036.18
2019-05-23T15:14:42.824Z,99035.52
2019-05-23T15:17:11.530Z,99034.57
2019-05-23T15:19:45.109Z,99035.77
2019-05-23T15:22:11.588Z,99032.33
2019-05-23T15:24:40.605Z,99034.64
2019-05-23T15:27:09.065Z,99023.55
2019-05-23T15:29:37.486Z,99026.09
2019-05-23T15:32:05.961Z,99017.49
2019-05-23T15:34:35.508Z,99017.74
2019-05-23T15:37:04.814Z,99018.45
2019-05-23T15:39:33.228Z,99019.44
2019-05-23T15:42:01.677Z,99012.50
2019-05-23T15:44:30.663Z,99016.03
2019-05-23T15:46:59.478Z,99022.80
2019-05-23T15:49:28.364Z,99011.95
2019-05-23T15:51:58.480Z,99026.14
2019-05-23T15:54:34.417Z,99013.25
2019-05-23T15:57:04.489Z,99008.28
2019-05-23T15:59:37.471Z,99013.68
2019-05-23T16:02:13.294Z,99010.03
2019-05-23T16:04:42.510Z,99014.28
2019-05-23T16:07:11.713Z,99005.73
2019-05-23T16:09:40.224Z,99007.69
2019-05-23T16:12:11.104Z,99007.45
2019-05-23T16:14:39.927Z,99003.81
2019-05-23T16:17:09.546Z,99000.27
2019-05-23T16:19:38.024Z,99002.95
2019-05-23T16:22:06.696Z,99006.08
2019-05-23T16:24:35.598Z,99000.33
2019-05-23T16:27:05.736Z,99004.34
2019-05-23T16:29:36.205Z,99000.52
2019-05-23T16:32:05.612Z,99001.00
2019-05-23T16:34:34.253Z,98998.72
2019-05-23T16:37:02.645Z,98998.83
2019-05-23T16:39:46.073Z,98997.66
2019-05-23T16:42:01.988Z,99001.78
2019-05-23T16:44:30.362Z,98999.25
2019-05-23T16:46:58.829Z,98995.22
2019-05-23T16:49:27.360Z,98995.35
2019-05-23T16:51:55.844Z,98994.58
2019-05-23T16:54:25.880Z,98991.33
2019-05-23T16:57:04.931Z,98991.33
2019-05-23T16:59:37.895Z,98996.51
2019-05-23T17:02:24.397Z,98992.42
2019-05-23T17:05:09.122Z,98998.55
2019-05-23T17:07:26.661Z,98991.92
2019-05-23T17:10:08.501Z,98994.77
2019-05-23T17:12:43.212Z,98999.69
2019-05-23T17:15:23.509Z,99001.26
2019-05-23T17:18:02.394Z,99004.98
2019-05-23T17:20:25.589Z,99001.91
2019-05-23T17:23:01.325Z,99001.91
2019-05-23T17:25:47.321Z,99002.95
2019-05-23T17:28:17.720Z,99002.42
2019-05-23T17:30:50.856Z,99002.07
2019-05-23T17:33:19.655Z,99001.53
2019-05-23T17:35:48.323Z,98998.73
2019-05-23T17:38:16.831Z,98995.16
2019-05-23T17:40:45.235Z,98998.03
2019-05-23T17:43:13.898Z,98994.06
2019-05-23T17:45:42.281Z,98989.36
2019-05-23T17:48:11.253Z,98987.20
2019-05-23T17:50:39.777Z,98987.53
2019-05-23T17:53:08.395Z,98980.41
2019-05-23T17:55:36.812Z,98979.82
2019-05-23T17:58:06.301Z,98977.83
2019-05-23T18:00:39.258Z,98981.06
2019-05-23T18:03:08.294Z,98981.88
2019-05-23T18:05:36.961Z,98981.84
2019-05-23T18:08:09.323Z,98980.91
2019-05-23T18:10:44.502Z,98982.91
2019-05-23T18:13:08.613Z,98977.61
2019-05-23T18:15:37.086Z,98977.26
2019-05-23T18:18:07.569Z,98979.13
2019-05-23T18:20:37.875Z,98982.17
2019-05-23T18:23:06.755Z,98973.69
2019-05-23T18:25:36.381Z,98969.95
2019-05-23T18:28:05.340Z,98970.88
2019-05-23T18:30:35.569Z,98976.13
2019-05-23T18:33:04.666Z,98978.90
2019-05-23T18:35:33.142Z,98975.13
2019-05-23T18:38:01.822Z,98969.44
2019-05-23T18:40:30.573Z,98972.51
2019-05-23T18:42:59.353Z,98974.53
2019-05-23T18:45:29.706Z,98973.39
2019-05-23T18:47:58.299Z,98971.48
2019-05-23T18:50:27.347Z,98980.62
2019-05-23T18:52:56.197Z,98977.33
2019-05-23T18:55:24.681Z,98977.11
2019-05-23T18:57:53.129Z,98982.89
2019-05-23T19:00:39.540Z,98978.80
2019-05-23T19:03:07.996Z,98986.36
2019-05-23T19:05:37.003Z,98993.37
2019-05-23T19:08:05.877Z,98994.16
2019-05-23T19:10:35.067Z,98990.17
2019-05-23T19:13:03.502Z,98993.89
2019-05-23T19:15:32.596Z,98994.98
2019-05-23T19:18:01.097Z,98995.53
2019-05-23T19:20:29.571Z,98989.52
2019-05-23T19:22:58.257Z,98990.48
2019-05-23T19:25:27.391Z,98992.31
2019-05-23T19:27:56.153Z,98990.06
2019-05-23T19:30:25.125Z,98992.53
2019-05-23T19:32:53.576Z,98993.76
2019-05-23T19:35:22.068Z,98989.08
2019-05-23T19:37:50.470Z,98992.44
2019-05-23T19:40:19.054Z,98994.39
2019-05-23T19:42:47.503Z,98997.97
2019-05-23T19:45:16.103Z,99005.00
2019-05-23T19:47:45.780Z,98999.05
2019-05-23T19:50:14.385Z,99001.39
2019-05-23T19:52:43.015Z,99005.52
2019-05-23T19:55:11.507Z,99005.45
2019-05-23T19:57:40.941Z,99007.88
2019-05-23T20:00:11.311Z,99009.77
2019-05-23T20:02:47.416Z,99012.41
2019-05-23T20:05:29.432Z,99014.23
2019-05-23T20:07:58.382Z,99015.53
2019-05-23T20:10:27.625Z,99012.31
2019-05-23T20:12:56.042Z,99025.27
2019-05-23T20:15:24.876Z,99026.27
2019-05-23T20:17:53.603Z,99022.17
2019-05-23T20:20:22.030Z,99028.97
2019-05-23T20:22:50.442Z,99029.36
2019-05-23T20:25:19.504Z,99030.06
2019-05-23T20:27:48.181Z,99030.42
2019-05-23T20:30:38.794Z,99033.05
2019-05-23T20:33:08.091Z,99031.13
2019-05-23T20:35:36.499Z,99034.70
2019-05-23T20:38:05.042Z,99031.14
2019-05-23T20:40:34.153Z,99035.77
2019-05-23T20:43:02.769Z,99034.38
2019-05-23T20:45:31.208Z,99028.59
2019-05-23T20:47:59.650Z,99030.53
2019-05-23T20:50:28.135Z,99029.75
2019-05-23T20:52:56.541Z,99029.30
2019-05-23T20:55:25.067Z,99024.58
2019-05-23T20:57:53.507Z,99027.82
2019-05-23T21:00:35.639Z,99030.69
2019-05-23T21:03:04.754Z,99032.37
2019-05-23T21:05:33.504Z,99032.53
2019-05-23T21:08:01.873Z,99030.60
2019-05-23T21:10:39.280Z,99031.45
2019-05-23T21:13:08.128Z,99027.55
2019-05-23T21:15:36.561Z,99034.80
2019-05-23T21:18:05.835Z,99035.48
2019-05-23T21:20:34.334Z,99032.53
2019-05-23T21:23:02.820Z,99036.25
2019-05-23T21:25:31.910Z,99027.34
2019-05-23T21:28:00.305Z,99031.52
2019-05-23T21:30:28.722Z,99033.13
2019-05-23T21:32:57.160Z,99027.27
2019-05-23T21:35:25.566Z,99027.60
2019-05-23T21:37:53.971Z,99023.59
2019-05-23T21:40:34.192Z,99025.66
2019-05-23T21:43:03.057Z,99029.19
2019-05-23T21:45:31.479Z,99028.19
2019-05-23T21:47:59.903Z,99027.11
2019-05-23T21:50:28.576Z,99024.08
2019-05-23T21:52:57.064Z,99023.47
2019-05-23T21:55:36.830Z,99018.31
2019-05-23T21:58:06.378Z,99023.76
2019-05-23T22:01:06.515Z,99022.56
2019-05-23T22:03:47.361Z,99025.03
2019-05-23T22:06:19.822Z,99023.02
2019-05-23T22:08:49.135Z,99024.59
2019-05-23T22:11:17.615Z,99023.63
2019-05-23T22:13:46.027Z,99024.48
2019-05-23T22:16:14.798Z,99011.95
2019-05-23T22:18:43.414Z,99009.19
2019-05-23T22:21:11.942Z,99003.64
2019-05-23T22:23:40.406Z,99007.45
2019-05-23T22:26:09.091Z,99008.01
2019-05-23T22:28:37.590Z,99007.10
2019-05-23T22:31:06.916Z,99008.97
2019-05-23T22:33:37.020Z,99001.81
2019-05-23T22:36:06.922Z,98999.03
2019-05-23T22:38:35.415Z,99001.53
2019-05-23T22:41:04.500Z,99005.39
2019-05-23T22:43:32.899Z,98996.96
2019-05-23T22:46:01.332Z,98997.81
2019-05-23T22:48:29.738Z,99002.84
2019-05-23T22:50:58.156Z,99007.73
2019-05-23T22:53:26.536Z,99004.71
2019-05-23T22:55:54.947Z,99006.40
2019-05-23T22:58:23.431Z,99002.02
2019-05-23T23:00:51.853Z,99002.80
2019-05-23T23:03:20.262Z,99007.44
2019-05-23T23:05:48.703Z,99009.38
2019-05-23T23:08:17.532Z,99005.73
2019-05-23T23:10:45.941Z,99000.50
2019-05-23T23:13:15.066Z,99000.91
2019-05-23T23:15:43.523Z,98993.87
2019-05-23T23:18:11.952Z,98997.27
2019-05-23T23:20:40.368Z,98995.02
2019-05-23T23:23:09.248Z,98994.40
2019-05-23T23:25:37.653Z,98992.87
2019-05-23T23:28:06.068Z,98989.63
2019-05-23T23:30:36.216Z,98984.58
2019-05-23T23:33:04.719Z,98984.58
2019-05-23T23:35:33.855Z,98985.77
2019-05-23T23:38:02.400Z,98985.61
2019-05-23T23:40:30.811Z,98980.61
2019-05-23T23:42:59.213Z,98978.03
2019-05-23T23:45:45.840Z,98978.71
2019-05-23T23:48:32.070Z,98978.27
2019-05-23T23:51:18.592Z,98973.25
2019-05-23T23:54:04.453Z,98971.08
2019-05-23T23:56:50.547Z,98968.92
2019-05-23T23:59:18.392Z,98971.39
